createdAt,value
2023-01-19T00:00:51.815Z,2.60
2023-01-19T00:03:18.644Z,3.20
2023-01-19T00:05:46.562Z,6.15
2023-01-19T00:08:16.820Z,3.40
2023-01-19T00:10:48.010Z,4.13
2023-01-19T00:13:15.556Z,9.57
2023-01-19T00:15:42.292Z,6.53
2023-01-19T00:18:10.624Z,4.88
2023-01-19T00:20:38.536Z,2.55
2023-01-19T00:23:05.214Z,4.82
2023-01-19T00:25:32.088Z,4.15
2023-01-19T00:28:01.443Z,4.63
2023-01-19T00:30:28.437Z,5.28
2023-01-19T00:32:55.526Z,5.63
2023-01-19T00:35:22.209Z,4.38
2023-01-19T00:37:48.838Z,3.88
2023-01-19T00:40:15.663Z,5.22
2023-01-19T00:42:44.459Z,5.30
2023-01-19T00:45:18.595Z,8.93
2023-01-19T00:47:45.886Z,6.55
2023-01-19T00:50:14.215Z,4.22
2023-01-19T00:52:41.621Z,5.22
2023-01-19T00:55:09.587Z,8.23
2023-01-19T00:57:36.444Z,5.50
2023-01-19T01:00:06.514Z,2.47
2023-01-19T01:02:33.826Z,3.78
2023-01-19T01:05:02.899Z,3.55
2023-01-19T01:07:30.510Z,5.68
2023-01-19T01:09:57.544Z,4.30
2023-01-19T01:12:24.445Z,3.50
2023-01-19T01:14:51.104Z,3.42
2023-01-19T01:17:17.792Z,3.08
2023-01-19T01:19:44.486Z,3.05
2023-01-19T01:22:11.133Z,5.18
2023-01-19T01:24:38.311Z,2.65
2023-01-19T01:27:04.914Z,4.38
2023-01-19T01:29:31.517Z,2.92
2023-01-19T01:31:58.236Z,2.42
2023-01-19T01:34:24.911Z,6.05
2023-01-19T01:36:51.760Z,5.65
2023-01-19T01:39:18.435Z,8.90
2023-01-19T01:41:45.020Z,5.50
2023-01-19T01:44:49.587Z,2.38
2023-01-19T01:47:46.961Z,4.43
2023-01-19T01:50:21.215Z,4.65
2023-01-19T01:53:06.593Z,3.55
2023-01-19T01:55:37.985Z,7.50
2023-01-19T01:58:05.735Z,7.72
2023-01-19T02:00:50.871Z,3.75
2023-01-19T02:03:17.806Z,7.00
2023-01-19T02:05:45.898Z,6.68
2023-01-19T02:08:38.847Z,6.28
2023-01-19T02:11:25.403Z,4.40
2023-01-19T02:13:52.103Z,6.53
2023-01-19T02:16:18.870Z,4.32
2023-01-19T02:18:45.739Z,3.08
2023-01-19T02:21:27.564Z,6.32
2023-01-19T02:23:58.955Z,3.70
2023-01-19T02:26:30.755Z,4.85
2023-01-19T02:29:00.398Z,6.03
2023-01-19T02:31:29.832Z,4.13
2023-01-19T02:33:57.449Z,5.00
2023-01-19T02:36:28.850Z,7.78
2023-01-19T02:38:58.223Z,4.07
2023-01-19T02:41:28.558Z,5.85
2023-01-19T02:43:56.880Z,6.72
2023-01-19T02:46:23.726Z,4.55
2023-01-19T02:48:50.365Z,3.58
2023-01-19T02:51:28.010Z,7.25
2023-01-19T02:54:03.972Z,4.53
2023-01-19T02:56:53.849Z,8.07
2023-01-19T02:59:30.068Z,6.47
2023-01-19T03:02:29.003Z,6.10
2023-01-19T03:05:50.209Z,6.53
2023-01-19T03:08:47.699Z,6.45
2023-01-19T03:11:15.256Z,5.13
2023-01-19T03:13:53.869Z,6.63
2023-01-19T03:16:36.631Z,6.72
2023-01-19T03:19:10.920Z,3.03
2023-01-19T03:21:40.575Z,3.75
2023-01-19T03:24:10.014Z,3.80
2023-01-19T03:26:43.093Z,6.07
2023-01-19T03:29:12.949Z,4.90
2023-01-19T03:31:43.302Z,4.88
2023-01-19T03:34:13.580Z,5.47
2023-01-19T03:36:50.947Z,6.50
2023-01-19T03:39:27.879Z,3.22
2023-01-19T03:41:58.740Z,6.68
2023-01-19T03:44:28.561Z,10.05
2023-01-19T03:46:57.202Z,4.22
2023-01-19T03:49:23.995Z,6.45
2023-01-19T03:51:50.877Z,4.10
2023-01-19T03:54:17.720Z,6.60
2023-01-19T03:56:44.930Z,4.53
2023-01-19T03:59:11.685Z,7.63
2023-01-19T04:01:38.393Z,3.38
2023-01-19T04:04:05.068Z,5.40
2023-01-19T04:06:32.205Z,6.45
2023-01-19T04:08:58.873Z,6.63
2023-01-19T04:11:25.666Z,5.30
2023-01-19T04:13:52.312Z,7.65
2023-01-19T04:16:21.248Z,4.53
2023-01-19T04:18:48.661Z,6.30
2023-01-19T04:21:15.502Z,12.52
2023-01-19T04:23:44.326Z,4.88
2023-01-19T04:26:10.991Z,5.75
2023-01-19T04:28:38.289Z,12.30
2023-01-19T04:31:06.401Z,7.53
2023-01-19T04:33:33.577Z,5.00
2023-01-19T04:36:00.258Z,5.30
2023-01-19T04:38:27.114Z,8.77
2023-01-19T04:40:54.649Z,6.32
2023-01-19T04:43:22.906Z,4.47
2023-01-19T04:45:50.356Z,11.02
2023-01-19T04:48:18.570Z,7.72
2023-01-19T04:50:45.669Z,6.57
2023-01-19T04:53:13.801Z,5.97
2023-01-19T04:55:40.920Z,4.10
2023-01-19T04:58:07.785Z,7.00
2023-01-19T05:00:34.565Z,3.45
2023-01-19T05:03:01.919Z,5.35
2023-01-19T05:05:29.195Z,5.10
2023-01-19T05:07:56.169Z,5.25
2023-01-19T05:10:23.848Z,8.57
2023-01-19T05:12:51.341Z,7.85
2023-01-19T05:15:18.117Z,7.38
2023-01-19T05:17:44.777Z,9.45
2023-01-19T05:20:14.942Z,8.00
2023-01-19T05:22:42.752Z,9.80
2023-01-19T05:25:09.759Z,8.77
2023-01-19T05:27:37.323Z,10.18
2023-01-19T05:30:05.670Z,3.85
2023-01-19T05:32:32.821Z,7.18
2023-01-19T05:34:59.522Z,3.63
2023-01-19T05:37:26.221Z,2.05
2023-01-19T05:39:53.648Z,7.47
2023-01-19T05:42:20.798Z,3.38
2023-01-19T05:44:47.524Z,3.90
2023-01-19T05:47:14.222Z,9.80
2023-01-19T05:49:40.878Z,9.85
2023-01-19T05:52:07.640Z,7.65
2023-01-19T05:54:34.515Z,5.72
2023-01-19T05:57:06.081Z,4.47
2023-01-19T05:59:32.671Z,5.57
2023-01-19T06:02:00.088Z,9.27
2023-01-19T06:04:27.023Z,10.18
2023-01-19T06:06:53.692Z,11.25
2023-01-19T06:09:20.374Z,4.35
2023-01-19T06:11:47.524Z,8.10
2023-01-19T06:14:14.224Z,6.93
2023-01-19T06:16:40.906Z,6.05
2023-01-19T06:19:07.892Z,8.25
2023-01-19T06:21:34.793Z,3.80
2023-01-19T06:24:01.744Z,5.13
2023-01-19T06:26:28.542Z,4.18
2023-01-19T06:28:55.576Z,4.90
2023-01-19T06:31:22.576Z,4.43
2023-01-19T06:33:49.928Z,7.13
2023-01-19T06:36:16.617Z,9.98
2023-01-19T06:38:43.213Z,6.40
2023-01-19T06:41:09.885Z,5.80
2023-01-19T06:43:36.659Z,6.68
2023-01-19T06:46:04.085Z,5.72
2023-01-19T06:48:30.884Z,4.25
2023-01-19T06:50:59.549Z,12.88
2023-01-19T06:53:28.426Z,5.47
2023-01-19T06:56:03.086Z,6.00
2023-01-19T06:58:31.730Z,7.53
2023-01-19T07:01:16.846Z,10.45
2023-01-19T07:03:45.499Z,7.90
2023-01-19T07:06:12.822Z,12.93
2023-01-19T07:08:40.064Z,10.88
2023-01-19T07:11:23.192Z,3.95
2023-01-19T07:13:56.040Z,3.05
2023-01-19T07:16:23.473Z,5.22
2023-01-19T07:18:50.408Z,7.40
2023-01-19T07:21:17.457Z,6.80
2023-01-19T07:23:44.080Z,8.70
2023-01-19T07:26:10.977Z,8.55
2023-01-19T07:28:37.674Z,5.97
2023-01-19T07:31:04.570Z,15.57
2023-01-19T07:33:31.253Z,10.20
2023-01-19T07:35:58.438Z,8.70
2023-01-19T07:38:25.302Z,5.82
2023-01-19T07:40:51.931Z,4.28
2023-01-19T07:43:18.698Z,7.07
2023-01-19T07:45:45.626Z,4.25
2023-01-19T07:48:12.338Z,2.63
2023-01-19T07:50:38.966Z,12.50
2023-01-19T07:53:07.433Z,10.25
2023-01-19T07:55:34.135Z,7.32
2023-01-19T07:58:00.973Z,13.88
2023-01-19T08:00:27.687Z,10.90
2023-01-19T08:03:00.160Z,9.70
2023-01-19T08:05:28.980Z,10.55
2023-01-19T08:07:59.256Z,9.88
2023-01-19T08:10:27.888Z,6.65
2023-01-19T08:12:55.556Z,10.25
2023-01-19T08:15:24.161Z,6.78
2023-01-19T08:18:09.288Z,6.65
2023-01-19T08:20:36.497Z,8.38
2023-01-19T08:23:05.578Z,4.72
2023-01-19T08:25:34.344Z,9.95
2023-01-19T08:28:01.196Z,5.47
2023-01-19T08:30:28.220Z,7.63
2023-01-19T08:32:58.208Z,9.32
2023-01-19T08:35:25.147Z,5.28
2023-01-19T08:37:51.801Z,8.10
2023-01-19T08:40:18.538Z,10.32
2023-01-19T08:42:45.598Z,12.07
2023-01-19T08:45:12.445Z,4.85
2023-01-19T08:47:39.192Z,9.75
2023-01-19T08:50:06.297Z,7.25
2023-01-19T08:52:32.967Z,7.18
2023-01-19T08:55:00.586Z,8.50
2023-01-19T08:57:27.789Z,8.82
2023-01-19T08:59:54.355Z,10.50
2023-01-19T09:02:21.129Z,8.95
2023-01-19T09:04:47.847Z,6.47
2023-01-19T09:07:14.466Z,10.23
2023-01-19T09:09:43.532Z,9.60
2023-01-19T09:12:10.255Z,10.65
2023-01-19T09:14:36.841Z,6.95
2023-01-19T09:17:03.901Z,4.78
2023-01-19T09:19:30.585Z,9.13
2023-01-19T09:21:59.164Z,6.03
2023-01-19T09:24:25.826Z,8.00
2023-01-19T09:26:52.412Z,11.85
2023-01-19T09:29:19.041Z,6.68
2023-01-19T09:31:45.765Z,8.68
2023-01-19T09:34:12.830Z,7.80
2023-01-19T09:36:40.028Z,9.80
2023-01-19T09:39:06.818Z,9.23
2023-01-19T09:41:36.249Z,9.35
2023-01-19T09:44:03.855Z,9.07
2023-01-19T09:46:40.582Z,13.18
2023-01-19T09:49:14.599Z,9.82
2023-01-19T09:51:46.770Z,8.32
2023-01-19T09:54:25.443Z,8.85
2023-01-19T09:56:53.670Z,7.93
2023-01-19T09:59:25.211Z,8.07
2023-01-19T10:01:59.639Z,4.78
2023-01-19T10:04:41.472Z,9.45
2023-01-19T10:07:29.506Z,8.75
2023-01-19T10:10:24.623Z,8.70
2023-01-19T10:13:12.822Z,6.28
2023-01-19T10:16:01.167Z,8.90
2023-01-19T10:18:34.961Z,11.32
2023-01-19T10:21:05.545Z,13.05
2023-01-19T10:23:41.263Z,6.88
2023-01-19T10:26:16.251Z,8.68
2023-01-19T10:28:44.655Z,8.85
2023-01-19T10:31:12.443Z,10.45
2023-01-19T10:33:39.420Z,10.57
2023-01-19T10:36:07.237Z,9.68
2023-01-19T10:38:35.359Z,10.10
2023-01-19T10:41:06.858Z,9.05
2023-01-19T10:43:36.624Z,10.02
2023-01-19T10:46:17.991Z,2.97
2023-01-19T10:48:47.960Z,9.43
2023-01-19T10:51:14.674Z,6.15
2023-01-19T10:53:52.515Z,8.80
2023-01-19T10:56:30.990Z,7.03
2023-01-19T10:58:59.827Z,5.18
2023-01-19T11:01:28.356Z,5.65
2023-01-19T11:04:00.082Z,8.40
2023-01-19T11:06:29.025Z,9.32
2023-01-19T11:09:20.013Z,8.05
2023-01-19T11:11:50.636Z,13.18
2023-01-19T11:14:23.656Z,7.47
2023-01-19T11:16:55.548Z,9.23
2023-01-19T11:19:33.124Z,8.27
2023-01-19T11:22:33.138Z,12.70
2023-01-19T11:25:05.407Z,13.55
2023-01-19T11:27:35.779Z,6.97
2023-01-19T11:30:09.903Z,6.30
2023-01-19T11:32:38.989Z,5.68
2023-01-19T11:35:33.489Z,7.90
2023-01-19T11:38:12.318Z,8.20
2023-01-19T11:40:40.401Z,4.88
2023-01-19T11:43:12.828Z,5.53
2023-01-19T11:48:11.046Z,5.85
2023-01-19T11:50:41.131Z,6.40
2023-01-19T11:53:20.023Z,6.82
2023-01-19T11:55:57.085Z,4.75
2023-01-19T11:58:24.620Z,3.95
2023-01-19T12:01:17.060Z,6.60
2023-01-19T12:03:54.707Z,3.05
2023-01-19T12:06:55.148Z,4.20
2023-01-19T12:09:35.139Z,4.85
2023-01-19T12:12:06.316Z,3.78
2023-01-19T12:14:52.819Z,4.20
2023-01-19T12:17:29.287Z,4.43
2023-01-19T12:20:24.865Z,7.22
2023-01-19T12:23:14.141Z,3.95
2023-01-19T12:25:43.678Z,7.00
2023-01-19T12:28:13.721Z,4.90
2023-01-19T12:30:40.439Z,4.50
2023-01-19T12:33:40.084Z,7.00
2023-01-19T12:36:09.542Z,7.70
2023-01-19T12:38:44.978Z,4.60
2023-01-19T12:41:20.528Z,2.55
2023-01-19T12:43:48.731Z,3.38
2023-01-19T12:46:31.744Z,2.20
2023-01-19T12:49:43.272Z,10.55
2023-01-19T12:52:30.985Z,4.60
2023-01-19T12:55:01.850Z,4.68
2023-01-19T12:57:34.082Z,3.45
2023-01-19T13:00:05.523Z,5.55
2023-01-19T13:02:42.054Z,2.85
2023-01-19T13:05:11.672Z,4.07
2023-01-19T13:08:03.058Z,7.47
2023-01-19T13:11:13.934Z,6.03
2023-01-19T13:13:41.066Z,6.15
2023-01-19T13:16:22.555Z,4.40
2023-01-19T13:18:58.103Z,6.43
2023-01-19T13:21:33.671Z,3.30
2023-01-19T13:24:02.819Z,3.17
2023-01-19T13:26:33.368Z,4.30
2023-01-19T13:29:25.213Z,3.65
2023-01-19T13:31:54.867Z,3.28
2023-01-19T13:34:24.950Z,4.57
2023-01-19T13:36:54.082Z,5.45
2023-01-19T13:39:32.131Z,5.68
2023-01-19T13:42:03.721Z,4.32
2023-01-19T13:44:36.193Z,4.65
2023-01-19T13:47:04.449Z,5.55
2023-01-19T13:49:35.961Z,3.97
2023-01-19T13:52:22.620Z,6.75
2023-01-19T13:54:53.574Z,3.22
2023-01-19T13:57:27.809Z,3.55
2023-01-19T14:00:12.884Z,5.45
2023-01-19T14:02:40.935Z,4.97
2023-01-19T14:05:31.561Z,4.45
2023-01-19T14:08:04.166Z,3.10
2023-01-19T14:10:31.378Z,4.75
2023-01-19T14:13:02.796Z,5.18
2023-01-19T14:15:31.922Z,3.50
2023-01-19T14:18:18.747Z,5.60
2023-01-19T14:21:03.572Z,8.43
2023-01-19T14:23:52.435Z,3.72
2023-01-19T14:26:37.483Z,6.22
2023-01-19T14:29:10.351Z,6.35
2023-01-19T14:31:49.062Z,7.13
2023-01-19T14:34:34.650Z,4.10
2023-01-19T14:37:03.311Z,4.05
2023-01-19T14:39:33.375Z,2.65
2023-01-19T14:42:04.111Z,6.63
2023-01-19T14:44:40.729Z,4.50
2023-01-19T14:47:29.489Z,2.55
2023-01-19T14:50:00.645Z,4.97
2023-01-19T14:52:34.903Z,2.90
2023-01-19T14:55:06.640Z,3.42
2023-01-19T14:57:37.930Z,3.38
2023-01-19T15:00:18.773Z,1.58
2023-01-19T15:02:46.762Z,2.60
2023-01-19T15:05:14.217Z,4.07
2023-01-19T15:07:44.315Z,4.82
2023-01-19T15:10:23.040Z,12.00
2023-01-19T15:15:28.260Z,5.78
2023-01-19T15:17:56.243Z,4.18
2023-01-19T15:20:23.813Z,4.07
2023-01-19T15:22:50.555Z,3.28
2023-01-19T15:25:22.400Z,9.15
2023-01-19T15:27:49.221Z,6.53
2023-01-19T15:30:33.716Z,4.63
2023-01-19T15:33:00.387Z,6.40
2023-01-19T15:35:27.227Z,7.05
2023-01-19T15:37:53.975Z,4.85
2023-01-19T15:40:35.838Z,5.82
2023-01-19T15:43:02.538Z,4.63
2023-01-19T15:45:35.015Z,4.35
2023-01-19T15:48:07.126Z,3.60
2023-01-19T15:50:36.532Z,3.90
2023-01-19T15:53:03.598Z,4.00
2023-01-19T15:55:30.412Z,4.15
2023-01-19T15:58:01.723Z,3.95
2023-01-19T16:00:29.881Z,6.78
2023-01-19T16:02:56.651Z,6.85
2023-01-19T16:05:30.574Z,5.00
2023-01-19T16:08:04.293Z,4.22
2023-01-19T16:10:30.929Z,3.35
2023-01-19T16:12:57.528Z,7.10
2023-01-19T16:15:25.447Z,4.50
2023-01-19T16:17:52.087Z,5.47
2023-01-19T16:20:19.963Z,5.60
2023-01-19T16:22:46.611Z,4.18
2023-01-19T16:25:13.260Z,5.45
2023-01-19T16:27:39.851Z,4.93
2023-01-19T16:30:07.177Z,4.65
2023-01-19T16:32:35.121Z,7.75
2023-01-19T16:35:01.864Z,4.35
2023-01-19T16:37:28.818Z,4.95
2023-01-19T16:39:55.528Z,5.93
2023-01-19T16:42:22.245Z,6.68
2023-01-19T16:44:48.867Z,8.25
2023-01-19T16:47:15.497Z,4.47
2023-01-19T16:49:42.135Z,5.65
2023-01-19T16:52:09.457Z,5.03
2023-01-19T16:54:37.930Z,3.45
2023-01-19T16:57:05.839Z,5.63
2023-01-19T16:59:32.689Z,5.63
2023-01-19T17:01:59.433Z,5.18
2023-01-19T17:04:27.306Z,4.43
2023-01-19T17:06:54.890Z,5.55
2023-01-19T17:09:21.823Z,4.57
2023-01-19T17:11:48.429Z,5.47
2023-01-19T17:14:22.619Z,6.03
2023-01-19T17:16:49.701Z,4.90
2023-01-19T17:19:18.773Z,5.57
2023-01-19T17:21:46.943Z,5.90
2023-01-19T17:24:13.610Z,4.68
2023-01-19T17:26:40.678Z,4.63
2023-01-19T17:29:09.823Z,7.15
2023-01-19T17:31:37.352Z,5.72
2023-01-19T17:34:04.802Z,5.53
2023-01-19T17:36:32.440Z,7.55
2023-01-19T17:39:00.855Z,7.45
2023-01-19T17:41:32.476Z,4.22
2023-01-19T17:44:02.903Z,4.22
2023-01-19T17:46:30.029Z,3.42
2023-01-19T17:49:04.353Z,3.80
2023-01-19T17:51:31.767Z,2.55
2023-01-19T17:53:58.971Z,2.95
2023-01-19T17:56:29.988Z,3.55
2023-01-19T17:58:57.862Z,1.00
2023-01-19T18:01:27.507Z,2.38
2023-01-19T18:03:54.721Z,2.10
2023-01-19T18:06:21.706Z,1.67
2023-01-19T18:08:49.477Z,2.05
2023-01-19T18:11:18.676Z,2.63
2023-01-19T18:13:48.190Z,3.63
2023-01-19T18:16:18.270Z,3.25
2023-01-19T18:18:44.892Z,2.35
2023-01-19T18:21:13.766Z,2.50
2023-01-19T18:23:43.342Z,4.07
2023-01-19T18:26:11.941Z,2.00
2023-01-19T18:28:38.549Z,4.63
2023-01-19T18:31:10.301Z,2.85
2023-01-19T18:33:37.289Z,6.72
2023-01-19T18:36:04.504Z,2.38
2023-01-19T18:38:31.636Z,3.42
2023-01-19T18:41:06.847Z,1.55
2023-01-19T18:43:34.286Z,3.38
2023-01-19T18:46:00.942Z,4.35
2023-01-19T18:48:27.827Z,2.75
2023-01-19T18:50:54.851Z,2.30
2023-01-19T18:53:22.409Z,2.50
2023-01-19T18:55:54.608Z,2.65
2023-01-19T18:58:21.629Z,2.03
2023-01-19T19:00:48.859Z,3.03
2023-01-19T19:03:15.647Z,4.10
2023-01-19T19:05:42.501Z,2.42
2023-01-19T19:08:09.423Z,4.22
2023-01-19T19:10:36.476Z,3.13
2023-01-19T19:13:03.426Z,3.15
2023-01-19T19:15:32.369Z,3.63
2023-01-19T19:17:59.628Z,4.28
2023-01-19T19:20:26.437Z,2.78
2023-01-19T19:22:53.110Z,3.40
2023-01-19T19:25:19.723Z,2.33
2023-01-19T19:27:53.666Z,2.90
2023-01-19T19:30:21.314Z,3.22
2023-01-19T19:32:57.287Z,2.28
2023-01-19T19:35:24.753Z,3.05
2023-01-19T19:37:53.748Z,2.88
2023-01-19T19:40:20.352Z,4.10
2023-01-19T19:42:47.029Z,4.68
2023-01-19T19:45:14.876Z,3.92
2023-01-19T19:47:43.101Z,4.70
2023-01-19T19:50:11.638Z,3.78
2023-01-19T19:52:40.318Z,4.13
2023-01-19T19:55:09.160Z,4.22
2023-01-19T19:57:36.269Z,3.50
2023-01-19T20:00:05.199Z,3.47
2023-01-19T20:02:32.259Z,3.05
2023-01-19T20:04:59.041Z,2.92
2023-01-19T20:07:25.742Z,3.65
2023-01-19T20:09:55.128Z,4.03
2023-01-19T20:12:21.874Z,6.13
2023-01-19T20:14:48.761Z,4.88
2023-01-19T20:17:15.672Z,6.57
2023-01-19T20:19:43.797Z,6.40
2023-01-19T20:22:10.555Z,9.43
2023-01-19T20:24:37.245Z,7.72
2023-01-19T20:27:04.063Z,12.43
2023-01-19T20:29:30.795Z,6.85
2023-01-19T20:31:57.591Z,9.70
2023-01-19T20:34:28.073Z,12.85
2023-01-19T20:36:54.985Z,7.43
2023-01-19T20:39:23.554Z,13.27
2023-01-19T20:41:51.421Z,8.15
2023-01-19T20:44:23.659Z,7.68
2023-01-19T20:46:50.682Z,5.82
2023-01-19T20:49:17.594Z,9.30
2023-01-19T20:51:47.038Z,16.05
2023-01-19T20:54:17.645Z,11.63
2023-01-19T20:56:44.520Z,11.75
2023-01-19T20:59:12.369Z,9.80
2023-01-19T21:01:40.229Z,9.70
2023-01-19T21:04:07.704Z,17.20
2023-01-19T21:06:34.548Z,14.82
2023-01-19T21:09:01.327Z,17.80
2023-01-19T21:11:28.480Z,11.80
2023-01-19T21:13:58.084Z,12.52
2023-01-19T21:16:27.841Z,10.93
2023-01-19T21:18:54.921Z,19.17
2023-01-19T21:21:30.414Z,13.40
2023-01-19T21:23:59.372Z,12.20
2023-01-19T21:26:26.234Z,16.48
2023-01-19T21:28:52.948Z,10.40
2023-01-19T21:31:22.763Z,16.48
2023-01-19T21:33:53.585Z,15.88
2023-01-19T21:36:21.260Z,14.52
2023-01-19T21:38:48.166Z,14.68
2023-01-19T21:41:16.328Z,14.18
2023-01-19T21:43:43.295Z,14.00
2023-01-19T21:46:18.314Z,14.88
2023-01-19T21:48:46.022Z,14.43
2023-01-19T21:51:13.347Z,14.18
2023-01-19T21:53:40.383Z,14.90
2023-01-19T21:56:09.477Z,9.77
2023-01-19T21:58:36.516Z,13.32
2023-01-19T22:01:06.699Z,12.48
2023-01-19T22:03:33.481Z,13.50
2023-01-19T22:06:05.749Z,13.35
2023-01-19T22:08:32.714Z,14.95
2023-01-19T22:11:19.576Z,11.98
2023-01-19T22:13:46.768Z,17.00
2023-01-19T22:16:16.783Z,12.50
2023-01-19T22:18:46.092Z,17.65
2023-01-19T22:21:18.858Z,16.08
2023-01-19T22:23:49.672Z,15.70
2023-01-19T22:26:16.735Z,13.57
2023-01-19T22:28:43.424Z,15.88
2023-01-19T22:31:15.433Z,15.07
2023-01-19T22:33:43.181Z,11.73
2023-01-19T22:36:21.754Z,14.60
2023-01-19T22:39:00.466Z,15.52
2023-01-19T22:41:32.997Z,16.42
2023-01-19T22:44:02.167Z,14.57
2023-01-19T22:46:31.606Z,16.75
2023-01-19T22:48:59.028Z,11.80
2023-01-19T22:51:26.947Z,12.85
2023-01-19T22:53:53.730Z,11.45
2023-01-19T22:56:26.213Z,12.80
2023-01-19T22:58:53.740Z,11.70
2023-01-19T23:01:34.380Z,11.15
2023-01-19T23:04:02.745Z,20.13
2023-01-19T23:06:31.325Z,13.15
2023-01-19T23:09:00.437Z,18.98
2023-01-19T23:11:30.552Z,12.05
2023-01-19T23:13:58.035Z,11.18
2023-01-19T23:16:25.152Z,13.55
2023-01-19T23:18:56.300Z,14.57
2023-01-19T23:21:25.638Z,16.38
2023-01-19T23:24:03.316Z,11.10
2023-01-19T23:26:31.101Z,13.48
2023-01-19T23:29:00.557Z,12.63
2023-01-19T23:31:32.577Z,10.52
2023-01-19T23:34:01.979Z,10.82
2023-01-19T23:36:30.936Z,7.40
2023-01-19T23:39:00.162Z,14.63
2023-01-19T23:41:29.213Z,12.02
2023-01-19T23:43:56.073Z,13.48
2023-01-19T23:46:22.898Z,14.60
2023-01-19T23:48:50.035Z,12.45
2023-01-19T23:51:25.137Z,12.25
2023-01-19T23:53:52.077Z,14.50
2023-01-19T23:56:24.742Z,10.75
2023-01-19T23:58:56.597Z,13.77
